createdAt,value
2023-01-11T00:00:05.762Z,18.45
2023-01-11T00:01:37.766Z,27.25
2023-01-11T00:03:09.946Z,23.15
2023-01-11T00:04:42.033Z,25.15
2023-01-11T00:06:14.143Z,26.67
2023-01-11T00:07:46.165Z,23.25
2023-01-11T00:09:18.241Z,22.88
2023-01-11T00:10:51.075Z,46.22
2023-01-11T00:12:23.201Z,36.60
2023-01-11T00:13:55.156Z,28.77
2023-01-11T00:15:27.366Z,22.65
2023-01-11T00:17:00.328Z,24.58
2023-01-11T00:18:32.369Z,20.35
2023-01-11T00:20:05.015Z,19.25
2023-01-11T00:21:37.054Z,17.73
2023-01-11T00:23:09.297Z,15.85
2023-01-11T00:24:41.290Z,14.68
2023-01-11T00:26:14.009Z,13.20
2023-01-11T00:27:47.853Z,11.23
2023-01-11T00:30:52.675Z,9.57
2023-01-11T00:32:24.857Z,9.88
2023-01-11T00:33:57.680Z,9.95
2023-01-11T00:35:31.769Z,11.60
2023-01-11T00:37:04.769Z,11.23
2023-01-11T00:38:51.954Z,10.13
2023-01-11T00:40:24.559Z,11.13
2023-01-11T00:42:15.243Z,14.45
2023-01-11T00:44:05.687Z,14.63
2023-01-11T00:45:56.660Z,21.20
2023-01-11T00:47:47.110Z,20.02
2023-01-11T00:49:19.244Z,16.77
2023-01-11T00:50:54.736Z,14.88
2023-01-11T00:52:26.839Z,18.98
2023-01-11T00:53:59.212Z,18.63
2023-01-11T00:55:34.422Z,18.17
2023-01-11T00:57:07.751Z,18.30
2023-01-11T00:58:39.900Z,17.33
2023-01-11T01:00:12.581Z,19.58
2023-01-11T01:01:45.176Z,19.23
2023-01-11T01:03:17.195Z,16.70
2023-01-11T01:04:49.252Z,17.08
2023-01-11T01:06:21.370Z,21.70
2023-01-11T01:07:53.685Z,16.40
2023-01-11T01:09:26.764Z,14.38
2023-01-11T01:10:58.717Z,14.18
2023-01-11T01:12:49.047Z,14.52
2023-01-11T01:14:27.039Z,13.48
2023-01-11T01:15:59.523Z,9.05
2023-01-11T01:17:31.629Z,7.53
2023-01-11T01:19:04.369Z,7.82
2023-01-11T01:20:36.346Z,10.50
2023-01-11T01:22:08.436Z,7.93
2023-01-11T01:23:40.399Z,7.45
2023-01-11T01:25:12.555Z,7.43
2023-01-11T01:26:44.621Z,9.98
2023-01-11T01:28:19.033Z,9.65
2023-01-11T01:29:51.100Z,10.13
2023-01-11T01:31:23.145Z,9.00
2023-01-11T01:32:55.148Z,12.38
2023-01-11T01:34:27.170Z,10.65
2023-01-11T01:35:59.202Z,10.10
2023-01-11T01:37:31.280Z,8.63
2023-01-11T01:39:05.042Z,10.80
2023-01-11T01:40:45.595Z,7.63
2023-01-11T01:42:19.725Z,9.95
2023-01-11T01:45:29.393Z,8.93
2023-01-11T01:47:03.733Z,9.23
2023-01-11T01:48:36.489Z,9.43
2023-01-11T01:50:15.624Z,12.57
2023-01-11T01:51:54.133Z,13.10
2023-01-11T01:53:33.317Z,10.63
2023-01-11T01:55:08.763Z,12.48
2023-01-11T01:56:48.033Z,12.32
2023-01-11T01:58:22.877Z,19.77
2023-01-11T01:59:57.259Z,22.27
2023-01-11T02:01:47.970Z,18.98
2023-01-11T02:03:23.308Z,23.23
2023-01-11T02:04:56.778Z,21.50
2023-01-11T02:06:28.807Z,25.42
2023-01-11T02:08:01.175Z,17.27
2023-01-11T02:10:02.864Z,13.82
2023-01-11T02:11:34.979Z,12.13
2023-01-11T02:13:10.406Z,11.88
2023-01-11T02:14:43.929Z,9.23
2023-01-11T02:17:47.926Z,12.02
2023-01-11T02:19:55.686Z,11.98
2023-01-11T02:21:56.990Z,10.55
2023-01-11T02:23:41.412Z,12.45
2023-01-11T02:25:48.500Z,11.07
2023-01-11T02:27:23.277Z,11.15
2023-01-11T02:29:27.112Z,10.90
2023-01-11T02:31:04.676Z,11.43
2023-01-11T02:33:13.331Z,11.95
2023-01-11T02:34:59.105Z,15.00
2023-01-11T02:37:01.458Z,12.55
2023-01-11T02:38:37.373Z,11.55
2023-01-11T02:40:21.747Z,13.57
2023-01-11T02:42:50.103Z,12.80
2023-01-11T02:45:01.876Z,14.07
2023-01-11T02:46:50.099Z,17.08
2023-01-11T02:48:35.654Z,20.55
2023-01-11T02:50:27.579Z,17.10
2023-01-11T02:52:03.791Z,17.90
2023-01-11T02:53:42.912Z,17.17
2023-01-11T02:55:17.820Z,20.85
2023-01-11T02:56:52.613Z,17.45
2023-01-11T02:58:29.118Z,18.40
2023-01-11T03:00:01.813Z,17.88
2023-01-11T03:01:33.919Z,18.85
2023-01-11T03:03:19.009Z,19.10
2023-01-11T03:04:51.115Z,18.38
2023-01-11T03:06:32.824Z,19.95
2023-01-11T03:08:30.550Z,16.02
2023-01-11T03:10:27.747Z,13.98
2023-01-11T03:12:24.340Z,16.73
2023-01-11T03:14:25.007Z,18.80
2023-01-11T03:16:10.010Z,18.63
2023-01-11T03:18:10.299Z,29.35
2023-01-11T03:19:54.235Z,70.32
2023-01-11T03:21:42.008Z,63.40
2023-01-11T03:23:20.050Z,31.20
2023-01-11T03:25:19.221Z,33.13
2023-01-11T03:27:30.225Z,33.05
2023-01-11T03:29:27.855Z,36.72
2023-01-11T03:31:08.370Z,27.67
2023-01-11T03:32:45.328Z,25.00
2023-01-11T03:34:30.108Z,25.35
2023-01-11T03:36:22.126Z,28.23
2023-01-11T03:38:18.664Z,28.15
2023-01-11T03:40:03.195Z,26.13
2023-01-11T03:41:37.580Z,26.80
2023-01-11T03:43:13.844Z,27.27
2023-01-11T03:44:49.360Z,35.55
2023-01-11T03:46:36.629Z,46.88
2023-01-11T03:48:11.430Z,54.58
2023-01-11T03:49:53.326Z,39.03
2023-01-11T03:51:28.305Z,43.67
2023-01-11T03:53:00.998Z,43.70
2023-01-11T03:54:33.857Z,38.47
2023-01-11T03:56:08.954Z,39.35
2023-01-11T03:57:44.394Z,34.75
2023-01-11T03:59:16.449Z,32.85
2023-01-11T04:00:49.179Z,36.38
2023-01-11T04:02:25.917Z,33.25
2023-01-11T04:03:58.038Z,33.97
2023-01-11T04:05:30.060Z,28.13
2023-01-11T04:07:02.142Z,23.52
2023-01-11T04:08:34.313Z,23.02
2023-01-11T04:10:06.979Z,24.95
2023-01-11T04:11:39.022Z,30.57
2023-01-11T04:13:11.089Z,28.27
2023-01-11T04:14:43.194Z,28.60
2023-01-11T04:16:15.319Z,26.95
2023-01-11T04:17:47.318Z,24.17
2023-01-11T04:19:19.309Z,28.60
2023-01-11T04:20:51.294Z,24.05
2023-01-11T04:22:23.267Z,27.00
2023-01-11T04:23:55.422Z,21.50
2023-01-11T04:25:27.857Z,20.52
2023-01-11T04:26:59.855Z,22.65
2023-01-11T04:28:31.927Z,21.35
2023-01-11T04:30:04.692Z,23.33
2023-01-11T04:31:37.052Z,23.88
2023-01-11T04:33:11.286Z,19.92
2023-01-11T04:34:43.465Z,21.73
2023-01-11T04:36:15.504Z,26.02
2023-01-11T04:37:48.341Z,30.80
2023-01-11T04:39:20.330Z,27.13
2023-01-11T04:41:12.301Z,31.15
2023-01-11T04:42:46.809Z,28.23
2023-01-11T04:44:18.844Z,24.08
2023-01-11T04:45:50.906Z,24.17
2023-01-11T04:49:05.905Z,28.15
2023-01-11T04:50:37.938Z,30.42
2023-01-11T04:52:14.751Z,34.78
2023-01-11T04:53:49.951Z,35.92
2023-01-11T04:55:22.041Z,32.85
2023-01-11T04:56:56.207Z,33.85
2023-01-11T04:58:32.393Z,31.50
2023-01-11T05:00:11.079Z,25.20
2023-01-11T05:01:43.147Z,25.52
2023-01-11T05:03:15.149Z,28.30
2023-01-11T05:04:47.267Z,26.40
2023-01-11T05:06:20.136Z,24.90
2023-01-11T05:07:52.219Z,23.10
2023-01-11T05:09:24.248Z,22.02
2023-01-11T05:10:58.155Z,24.45
2023-01-11T05:12:30.403Z,20.15
2023-01-11T05:14:02.403Z,13.25
2023-01-11T05:15:35.277Z,16.45
2023-01-11T05:17:07.336Z,11.23
2023-01-11T05:18:41.440Z,12.13
2023-01-11T05:20:13.732Z,14.43
2023-01-11T05:23:20.022Z,12.32
2023-01-11T05:24:52.164Z,10.52
2023-01-11T05:26:29.343Z,9.95
2023-01-11T05:28:01.558Z,12.25
2023-01-11T05:29:33.634Z,10.98
2023-01-11T05:31:06.082Z,14.32
2023-01-11T05:32:38.002Z,11.90
2023-01-11T05:34:12.960Z,15.18
2023-01-11T05:35:44.996Z,16.02
2023-01-11T05:37:17.066Z,16.38
2023-01-11T05:38:52.152Z,16.27
2023-01-11T05:40:24.200Z,15.07
2023-01-11T05:41:56.194Z,21.33
2023-01-11T05:43:29.815Z,14.18
2023-01-11T05:46:51.953Z,14.88
2023-01-11T05:48:24.592Z,14.55
2023-01-11T05:49:56.666Z,11.50
2023-01-11T05:51:33.099Z,11.52
2023-01-11T05:53:05.083Z,9.20
2023-01-11T05:54:37.558Z,9.35
2023-01-11T05:56:09.615Z,8.70
2023-01-11T05:57:45.036Z,9.43
2023-01-11T05:59:17.049Z,9.10
2023-01-11T06:00:50.510Z,9.20
2023-01-11T06:02:22.652Z,9.88
2023-01-11T06:03:54.795Z,9.43
2023-01-11T06:05:26.756Z,8.23
2023-01-11T06:06:58.816Z,9.05
2023-01-11T06:08:30.943Z,9.45
2023-01-11T06:10:03.010Z,10.30
2023-01-11T06:11:35.089Z,11.63
2023-01-11T06:13:25.810Z,14.73
2023-01-11T06:14:57.917Z,17.75
2023-01-11T06:16:29.964Z,21.73
2023-01-11T06:18:01.943Z,23.75
2023-01-11T06:19:33.981Z,14.40
2023-01-11T06:21:06.819Z,13.35
2023-01-11T06:22:39.098Z,27.10
2023-01-11T06:24:14.342Z,45.95
2023-01-11T06:27:19.071Z,52.10
2023-01-11T06:28:51.607Z,18.33
2023-01-11T06:30:26.181Z,15.88
2023-01-11T06:31:58.694Z,19.38
2023-01-11T06:33:31.108Z,25.70
2023-01-11T06:35:03.105Z,22.80
2023-01-11T06:36:35.115Z,18.33
2023-01-11T06:38:09.377Z,18.08
2023-01-11T06:39:41.437Z,16.67
2023-01-11T06:41:13.801Z,17.60
2023-01-11T06:42:45.868Z,18.02
2023-01-11T06:44:17.916Z,17.50
2023-01-11T06:45:50.297Z,14.13
2023-01-11T06:47:22.379Z,13.27
2023-01-11T06:48:54.342Z,13.27
2023-01-11T06:50:26.978Z,10.77
2023-01-11T06:51:59.022Z,11.63
2023-01-11T06:53:30.988Z,13.38
2023-01-11T06:55:03.321Z,12.15
2023-01-11T06:56:35.312Z,13.80
2023-01-11T06:58:07.578Z,11.70
2023-01-11T06:59:40.104Z,13.68
2023-01-11T07:01:12.318Z,19.00
2023-01-11T07:02:45.420Z,18.75
2023-01-11T07:04:18.999Z,26.48
2023-01-11T07:07:23.322Z,31.38
2023-01-11T07:08:55.323Z,35.35
2023-01-11T07:10:27.502Z,36.90
2023-01-11T07:11:59.463Z,37.80
2023-01-11T07:13:31.504Z,39.17
2023-01-11T07:15:06.074Z,38.42
2023-01-11T07:16:38.089Z,40.75
2023-01-11T07:18:10.875Z,45.88
2023-01-11T07:19:42.920Z,42.05
2023-01-11T07:21:14.940Z,38.40
2023-01-11T07:22:47.324Z,26.70
2023-01-11T07:24:20.690Z,25.65
2023-01-11T07:25:56.148Z,22.00
2023-01-11T07:27:28.279Z,19.70
2023-01-11T07:29:00.278Z,16.38
2023-01-11T07:30:51.947Z,19.73
2023-01-11T07:32:28.885Z,21.25
2023-01-11T07:34:00.893Z,21.05
2023-01-11T07:35:33.044Z,23.73
2023-01-11T07:37:05.204Z,22.95
2023-01-11T07:38:37.317Z,22.10
2023-01-11T07:40:10.246Z,11.90
2023-01-11T07:42:00.986Z,14.93
2023-01-11T07:43:33.816Z,11.85
2023-01-11T07:45:06.440Z,10.60
2023-01-11T07:46:38.576Z,9.98
2023-01-11T07:48:11.454Z,9.23
2023-01-11T07:49:43.499Z,10.68
2023-01-11T07:51:17.102Z,10.75
2023-01-11T07:54:25.072Z,9.60
2023-01-11T07:55:57.127Z,11.05
2023-01-11T07:57:31.816Z,12.50
2023-01-11T07:59:04.130Z,11.13
2023-01-11T08:02:07.967Z,14.05
2023-01-11T08:03:40.226Z,14.68
2023-01-11T08:05:12.373Z,10.85
2023-01-11T08:06:44.330Z,10.63
2023-01-11T08:08:16.521Z,9.77
2023-01-11T08:09:48.551Z,9.13
2023-01-11T08:11:39.286Z,10.88
2023-01-11T08:13:33.447Z,11.57
2023-01-11T08:15:06.404Z,11.85
2023-01-11T08:16:38.538Z,11.18
2023-01-11T08:18:12.172Z,11.75
2023-01-11T08:19:44.508Z,14.10
2023-01-11T08:21:17.753Z,16.42
2023-01-11T08:22:50.245Z,11.18
2023-01-11T08:24:22.331Z,13.95
2023-01-11T08:25:57.426Z,14.68
2023-01-11T08:27:29.526Z,14.00
2023-01-11T08:29:01.725Z,24.70
2023-01-11T08:30:34.025Z,18.10
2023-01-11T08:32:06.490Z,10.38
2023-01-11T08:33:38.554Z,13.10
2023-01-11T08:35:10.786Z,14.48
2023-01-11T08:36:42.889Z,14.55
2023-01-11T08:38:15.321Z,13.48
2023-01-11T08:39:48.606Z,14.93
2023-01-11T08:41:20.628Z,13.48
2023-01-11T08:42:58.699Z,25.38
2023-01-11T08:44:34.660Z,31.17
2023-01-11T08:46:08.222Z,45.75
2023-01-11T08:47:40.344Z,48.42
2023-01-11T08:49:12.659Z,21.27
2023-01-11T08:50:47.546Z,18.00
2023-01-11T08:52:19.771Z,18.02
2023-01-11T08:53:52.932Z,16.25
2023-01-11T08:55:24.978Z,14.52
2023-01-11T08:56:56.913Z,14.98
2023-01-11T08:58:29.622Z,13.10
2023-01-11T09:00:01.582Z,12.38
2023-01-11T09:01:36.329Z,11.40
2023-01-11T09:03:08.947Z,11.65
2023-01-11T09:04:42.065Z,11.83
2023-01-11T09:06:14.020Z,12.27
2023-01-11T09:07:46.409Z,11.32
2023-01-11T09:09:18.550Z,11.25
2023-01-11T09:10:50.901Z,10.23
2023-01-11T09:12:22.917Z,10.02
2023-01-11T09:13:57.826Z,10.07
2023-01-11T09:15:30.508Z,10.30
2023-01-11T09:17:02.611Z,9.43
2023-01-11T09:18:34.716Z,9.80
2023-01-11T09:20:07.438Z,9.40
2023-01-11T09:21:39.468Z,8.82
2023-01-11T09:23:11.547Z,10.77
2023-01-11T09:24:43.656Z,11.40
2023-01-11T09:26:16.006Z,10.48
2023-01-11T09:27:49.598Z,9.13
2023-01-11T09:30:54.003Z,10.48
2023-01-11T09:32:26.036Z,11.38
2023-01-11T09:33:58.065Z,14.25
2023-01-11T09:35:30.165Z,13.88
2023-01-11T09:37:04.355Z,12.43
2023-01-11T09:38:38.323Z,10.43
2023-01-11T09:40:21.124Z,13.43
2023-01-11T09:42:12.952Z,10.90
2023-01-11T09:45:24.672Z,10.68
2023-01-11T09:47:12.631Z,12.38
2023-01-11T09:48:47.757Z,10.30
2023-01-11T09:50:25.062Z,11.80
2023-01-11T09:52:07.206Z,10.73
2023-01-11T09:53:40.477Z,11.63
2023-01-11T09:55:20.569Z,8.80
2023-01-11T09:57:02.296Z,7.90
2023-01-11T09:58:34.519Z,8.40
2023-01-11T10:00:16.757Z,8.32
2023-01-11T10:01:54.888Z,7.68
2023-01-11T10:03:37.417Z,8.45
2023-01-11T10:05:41.932Z,8.57
2023-01-11T10:07:17.410Z,9.63
2023-01-11T10:18:32.089Z,9.35
2023-01-11T10:18:34.381Z,9.50
2023-01-11T10:19:48.410Z,11.63
2023-01-11T10:21:31.997Z,10.52
2023-01-11T10:23:16.013Z,13.63
2023-01-11T10:24:53.391Z,13.27
2023-01-11T10:26:29.177Z,11.82
2023-01-11T10:28:08.905Z,10.50
2023-01-11T10:29:54.369Z,9.73
2023-01-11T10:31:47.719Z,8.88
2023-01-11T10:34:03.001Z,10.27
2023-01-11T10:36:06.340Z,9.55
2023-01-11T10:38:10.830Z,9.63
2023-01-11T10:40:19.497Z,12.00
2023-01-11T10:42:01.048Z,10.13
2023-01-11T10:43:37.921Z,9.32
2023-01-11T10:45:26.447Z,8.27
2023-01-11T10:47:00.015Z,9.07
2023-01-11T10:50:41.593Z,8.73
2023-01-11T10:52:35.488Z,9.98
2023-01-11T10:54:18.266Z,10.85
2023-01-11T10:56:08.488Z,11.23
2023-01-11T10:58:01.858Z,15.43
2023-01-11T11:00:05.899Z,15.35
2023-01-11T11:02:05.346Z,15.35
2023-01-11T11:03:53.868Z,14.20
2023-01-11T11:05:47.698Z,15.73
2023-01-11T11:07:26.306Z,12.75
2023-01-11T11:09:33.446Z,11.85
2023-01-11T11:11:13.979Z,11.77
2023-01-11T11:13:24.626Z,11.65
2023-01-11T11:15:14.693Z,11.55
2023-01-11T11:17:21.930Z,9.88
2023-01-11T11:18:58.811Z,30.02
2023-01-11T11:20:32.689Z,15.95
2023-01-11T11:22:04.860Z,9.63
2023-01-11T11:23:37.519Z,9.40
2023-01-11T11:25:55.769Z,11.37
2023-01-11T11:27:40.418Z,11.85
2023-01-11T11:29:20.917Z,10.50
2023-01-11T11:30:54.820Z,9.90
2023-01-11T11:32:32.091Z,7.70
2023-01-11T11:34:17.045Z,8.25
2023-01-11T11:36:12.866Z,8.75
2023-01-11T11:37:45.305Z,8.63
2023-01-11T11:39:28.569Z,9.65
2023-01-11T11:41:12.592Z,7.40
2023-01-11T11:44:21.625Z,7.53
2023-01-11T11:46:02.282Z,8.60
2023-01-11T11:47:34.344Z,8.13
2023-01-11T11:49:13.751Z,8.10
2023-01-11T11:50:46.799Z,8.38
2023-01-11T11:52:18.955Z,7.25
2023-01-11T11:53:53.930Z,9.02
2023-01-11T11:55:28.918Z,10.93
2023-01-11T11:57:13.730Z,8.98
2023-01-11T11:58:46.270Z,7.47
2023-01-11T12:00:29.824Z,7.55
2023-01-11T12:02:04.230Z,8.35
2023-01-11T12:03:36.457Z,8.77
2023-01-11T12:05:11.218Z,7.57
2023-01-11T12:06:43.571Z,8.35
2023-01-11T12:08:15.907Z,8.27
2023-01-11T12:09:57.002Z,8.63
2023-01-11T12:13:03.814Z,6.63
2023-01-11T12:14:36.154Z,7.43
2023-01-11T12:16:21.278Z,7.00
2023-01-11T12:17:54.831Z,8.77
2023-01-11T12:19:46.171Z,6.65
2023-01-11T12:21:27.031Z,12.65
2023-01-11T12:23:26.630Z,27.73
2023-01-11T12:25:14.571Z,10.63
2023-01-11T12:26:59.485Z,7.95
2023-01-11T12:28:52.412Z,7.45
2023-01-11T12:30:36.454Z,7.22
2023-01-11T12:34:17.093Z,8.70
2023-01-11T12:36:07.167Z,8.93
2023-01-11T12:37:59.242Z,7.80
2023-01-11T12:39:44.293Z,4.20
2023-01-11T12:41:21.226Z,9.27
2023-01-11T12:43:14.434Z,9.82
2023-01-11T12:44:55.587Z,5.97
2023-01-11T12:46:33.593Z,5.50
2023-01-11T12:48:23.760Z,7.03
2023-01-11T12:50:27.738Z,4.00
2023-01-11T12:52:18.111Z,3.75
2023-01-11T12:53:56.748Z,5.03
2023-01-11T12:55:44.244Z,4.10
2023-01-11T12:57:35.327Z,5.32
2023-01-11T12:59:24.789Z,7.85
2023-01-11T13:01:18.840Z,6.40
2023-01-11T13:03:14.626Z,7.97
2023-01-11T13:05:04.488Z,5.63
2023-01-11T13:06:41.435Z,5.05
2023-01-11T13:08:44.732Z,4.00
2023-01-11T13:10:22.274Z,8.35
2023-01-11T13:12:03.462Z,17.25
2023-01-11T13:13:56.741Z,7.95
2023-01-11T13:17:34.459Z,23.80
2023-01-11T13:19:12.169Z,7.97
2023-01-11T13:21:02.505Z,7.40
2023-01-11T13:22:42.602Z,6.28
2023-01-11T13:24:18.224Z,6.72
2023-01-11T13:25:55.257Z,10.85
2023-01-11T13:27:29.260Z,7.45
2023-01-11T13:29:08.195Z,5.78
2023-01-11T13:30:41.286Z,6.47
2023-01-11T13:32:19.649Z,6.97
2023-01-11T13:33:57.931Z,6.95
2023-01-11T13:35:47.167Z,8.77
2023-01-11T13:37:49.346Z,7.57
2023-01-11T13:39:23.402Z,7.47
2023-01-11T13:41:00.555Z,7.75
2023-01-11T13:42:41.366Z,7.65
2023-01-11T13:44:27.377Z,7.72
2023-01-11T13:46:07.107Z,6.97
2023-01-11T13:47:57.353Z,10.73
2023-01-11T13:49:53.582Z,8.90
2023-01-11T13:51:35.568Z,7.50
2023-01-11T13:53:39.621Z,8.13
2023-01-11T13:55:25.978Z,6.75
2023-01-11T13:57:05.901Z,6.32
2023-01-11T13:59:06.572Z,5.22
2023-01-11T14:00:42.433Z,6.53
2023-01-11T14:02:32.960Z,6.28
2023-01-11T14:04:10.091Z,5.53
2023-01-11T14:06:00.145Z,8.30
2023-01-11T14:07:50.188Z,6.60
2023-01-11T14:09:51.811Z,6.70
2023-01-11T14:11:45.387Z,7.65
2023-01-11T14:13:59.979Z,8.88
2023-01-11T14:15:49.282Z,9.40
2023-01-11T14:17:48.659Z,7.63
2023-01-11T14:19:28.816Z,10.40
2023-01-11T14:21:08.934Z,7.40
2023-01-11T14:22:59.219Z,17.88
2023-01-11T14:24:35.470Z,14.63
2023-01-11T14:26:25.779Z,8.65
2023-01-11T14:28:20.474Z,8.75
2023-01-11T14:30:10.878Z,10.88
2023-01-11T14:31:55.679Z,7.35
2023-01-11T14:33:36.972Z,7.45
2023-01-11T14:35:21.363Z,7.82
2023-01-11T14:37:12.740Z,6.40
2023-01-11T14:38:52.011Z,8.13
2023-01-11T14:40:27.192Z,7.05
2023-01-11T14:42:29.343Z,6.88
2023-01-11T14:44:24.224Z,8.10
2023-01-11T14:46:05.387Z,7.10
2023-01-11T14:47:54.607Z,6.95
2023-01-11T14:49:45.493Z,8.35
2023-01-11T14:51:35.441Z,16.52
2023-01-11T14:53:10.072Z,7.15
2023-01-11T14:54:52.396Z,8.02
2023-01-11T14:56:45.188Z,8.02
2023-01-11T14:58:21.744Z,6.88
2023-01-11T14:59:53.873Z,8.07
2023-01-11T15:01:26.013Z,8.05
2023-01-11T15:03:00.709Z,6.88
2023-01-11T15:04:38.504Z,8.25
2023-01-11T15:06:20.683Z,8.20
2023-01-11T15:07:53.196Z,7.82
2023-01-11T15:09:50.712Z,6.68
2023-01-11T15:11:37.718Z,7.03
2023-01-11T15:13:16.036Z,8.45
2023-01-11T15:14:52.522Z,8.23
2023-01-11T15:16:49.122Z,8.45
2023-01-11T15:18:23.593Z,8.18
2023-01-11T15:19:55.585Z,8.93
2023-01-11T15:21:27.767Z,13.95
2023-01-11T15:23:16.874Z,9.27
2023-01-11T15:26:23.173Z,9.35
2023-01-11T15:29:37.813Z,9.55
2023-01-11T15:31:33.976Z,9.27
2023-01-11T15:33:18.594Z,10.52
2023-01-11T15:34:52.509Z,8.90
2023-01-11T15:36:24.958Z,10.35
2023-01-11T15:38:18.373Z,10.25
2023-01-11T15:40:09.630Z,9.45
2023-01-11T15:42:04.909Z,9.43
2023-01-11T15:44:15.590Z,11.27
2023-01-11T15:46:07.107Z,10.13
2023-01-11T15:48:04.764Z,10.13
2023-01-11T15:50:02.716Z,10.13
2023-01-11T15:51:49.760Z,12.27
2023-01-11T15:53:26.949Z,10.40
2023-01-11T15:55:04.994Z,11.95
2023-01-11T15:56:46.381Z,10.48
2023-01-11T15:58:23.871Z,11.57
2023-01-11T16:00:24.840Z,8.70
2023-01-11T16:02:14.959Z,9.38
2023-01-11T16:03:58.942Z,9.57
2023-01-11T16:05:36.749Z,7.85
2023-01-11T16:07:18.973Z,9.23
2023-01-11T16:08:59.391Z,8.45
2023-01-11T16:10:56.289Z,11.13
2023-01-11T16:12:46.847Z,9.20
2023-01-11T16:14:34.706Z,9.63
2023-01-11T16:16:19.681Z,10.98
2023-01-11T16:17:51.867Z,9.80
2023-01-11T16:19:32.024Z,12.05
2023-01-11T16:21:34.002Z,14.13
2023-01-11T16:24:41.399Z,14.15
2023-01-11T16:26:20.668Z,13.88
2023-01-11T16:27:54.976Z,13.13
2023-01-11T16:29:30.777Z,15.00
2023-01-11T16:31:05.140Z,13.82
2023-01-11T16:32:37.921Z,14.02
2023-01-11T16:34:09.908Z,10.35
2023-01-11T16:35:42.248Z,11.18
2023-01-11T16:37:39.263Z,11.65
2023-01-11T16:39:13.589Z,10.02
2023-01-11T16:40:50.048Z,11.35
2023-01-11T16:42:22.337Z,10.75
2023-01-11T16:44:00.917Z,11.57
2023-01-11T16:45:42.834Z,10.50
2023-01-11T16:47:15.898Z,12.93
2023-01-11T16:48:47.999Z,10.15
2023-01-11T16:50:22.660Z,10.88
2023-01-11T16:51:58.015Z,9.88
2023-01-11T16:53:54.218Z,9.07
2023-01-11T16:55:57.607Z,10.85
2023-01-11T16:57:37.549Z,10.45
2023-01-11T16:59:15.415Z,10.30
2023-01-11T17:00:59.193Z,10.55
2023-01-11T17:02:36.074Z,11.63
2023-01-11T17:04:29.931Z,9.32
2023-01-11T17:06:08.167Z,10.77
2023-01-11T17:07:40.235Z,12.18
2023-01-11T17:09:21.282Z,13.52
2023-01-11T17:10:56.339Z,12.02
2023-01-11T17:12:28.479Z,11.82
2023-01-11T17:14:20.050Z,14.38
2023-01-11T17:15:59.106Z,12.50
2023-01-11T17:17:38.167Z,11.18
2023-01-11T17:19:17.657Z,12.23
2023-01-11T17:20:53.482Z,13.20
2023-01-11T17:22:27.996Z,13.35
2023-01-11T17:24:02.920Z,13.38
2023-01-11T17:25:44.896Z,10.65
2023-01-11T17:27:23.388Z,12.52
2023-01-11T17:28:57.665Z,10.48
2023-01-11T17:30:30.493Z,12.85
2023-01-11T17:32:05.628Z,10.60
2023-01-11T17:33:38.192Z,10.85
2023-01-11T17:35:18.677Z,9.82
2023-01-11T17:36:51.190Z,10.32
2023-01-11T17:38:26.277Z,13.18
2023-01-11T17:39:58.655Z,14.82
2023-01-11T17:41:49.700Z,12.75
2023-01-11T17:43:42.623Z,11.13
2023-01-11T17:45:22.004Z,10.00
2023-01-11T17:46:54.014Z,8.63
2023-01-11T17:48:27.472Z,8.50
2023-01-11T17:50:02.381Z,11.15
2023-01-11T17:51:35.214Z,11.18
2023-01-11T17:54:39.057Z,22.27
2023-01-11T17:56:35.755Z,22.15
2023-01-11T17:58:28.989Z,19.23
2023-01-11T18:00:29.885Z,21.77
2023-01-11T18:02:05.083Z,17.27
2023-01-11T18:03:57.393Z,16.17
2023-01-11T18:05:30.206Z,15.35
2023-01-11T18:07:18.148Z,15.63
2023-01-11T18:08:55.179Z,17.30
2023-01-11T18:10:33.168Z,15.23
2023-01-11T18:12:14.001Z,17.25
2023-01-11T18:13:46.001Z,20.75
2023-01-11T18:15:27.068Z,25.27
2023-01-11T18:17:07.731Z,23.05
2023-01-11T18:18:42.651Z,25.30
2023-01-11T18:20:14.719Z,21.20
2023-01-11T18:21:54.373Z,24.15
2023-01-11T18:23:27.300Z,21.15
2023-01-11T18:25:01.272Z,20.70
2023-01-11T18:26:33.306Z,18.20
2023-01-11T18:29:48.122Z,24.10
2023-01-11T18:31:20.302Z,20.35
2023-01-11T18:32:52.362Z,23.92
2023-01-11T18:34:24.560Z,21.27
2023-01-11T18:36:04.264Z,23.35
2023-01-11T18:37:37.940Z,25.65
2023-01-11T18:39:11.595Z,19.60
2023-01-11T18:40:44.545Z,20.10
2023-01-11T18:42:19.650Z,18.20
2023-01-11T18:43:52.846Z,20.13
2023-01-11T18:45:25.753Z,18.13
2023-01-11T18:46:57.803Z,13.25
2023-01-11T18:48:30.010Z,13.18
2023-01-11T18:50:02.096Z,13.90
2023-01-11T18:51:35.956Z,12.77
2023-01-11T18:53:11.362Z,12.02
2023-01-11T18:54:43.587Z,13.93
2023-01-11T18:58:01.348Z,11.45
2023-01-11T18:59:33.724Z,12.18
2023-01-11T19:01:07.885Z,11.32
2023-01-11T19:02:44.003Z,12.75
2023-01-11T19:04:16.210Z,12.15
2023-01-11T19:05:48.212Z,13.93
2023-01-11T19:07:21.301Z,13.85
2023-01-11T19:08:53.411Z,14.20
2023-01-11T19:10:25.458Z,12.98
2023-01-11T19:11:57.632Z,12.55
2023-01-11T19:13:32.105Z,12.68
2023-01-11T19:15:04.411Z,13.27
2023-01-11T19:16:38.929Z,12.55
2023-01-11T19:18:10.901Z,12.50
2023-01-11T19:19:43.025Z,11.90
2023-01-11T19:21:15.184Z,13.75
2023-01-11T19:22:47.248Z,12.65
2023-01-11T19:24:19.269Z,12.98
2023-01-11T19:25:58.509Z,14.25
2023-01-11T19:27:30.687Z,15.35
2023-01-11T19:29:02.805Z,22.70
2023-01-11T19:30:34.937Z,13.98
2023-01-11T19:32:07.013Z,11.95
2023-01-11T19:33:40.568Z,11.25
2023-01-11T19:36:44.796Z,10.57
2023-01-11T19:38:18.761Z,11.68
2023-01-11T19:39:50.942Z,9.63
2023-01-11T19:41:22.932Z,10.65
2023-01-11T19:42:54.968Z,13.60
2023-01-11T19:44:34.873Z,11.63
2023-01-11T19:46:06.860Z,11.48
2023-01-11T19:47:40.261Z,11.25
2023-01-11T19:49:12.314Z,11.20
2023-01-11T19:50:44.355Z,12.95
2023-01-11T19:52:19.475Z,11.05
2023-01-11T19:53:52.062Z,12.18
2023-01-11T19:55:24.944Z,11.20
2023-01-11T19:56:57.042Z,13.23
2023-01-11T19:58:29.391Z,12.75
2023-01-11T20:00:01.696Z,19.15
2023-01-11T20:01:33.858Z,22.13
2023-01-11T20:03:06.686Z,19.63
2023-01-11T20:04:38.893Z,14.52
2023-01-11T20:06:11.443Z,15.23
2023-01-11T20:07:43.552Z,16.88
2023-01-11T20:09:15.551Z,17.08
2023-01-11T20:10:47.972Z,15.95
2023-01-11T20:12:20.108Z,14.05
2023-01-11T20:13:52.468Z,9.95
2023-01-11T20:15:24.570Z,12.13
2023-01-11T20:16:56.631Z,8.63
2023-01-11T20:18:28.632Z,10.10
2023-01-11T20:20:00.682Z,9.70
2023-01-11T20:21:34.507Z,9.85
2023-01-11T20:23:06.531Z,9.00
2023-01-11T20:24:38.544Z,8.88
2023-01-11T20:26:15.630Z,10.10
2023-01-11T20:27:47.759Z,7.97
2023-01-11T20:29:19.736Z,8.68
2023-01-11T20:30:51.754Z,7.88
2023-01-11T20:32:42.127Z,8.85
2023-01-11T20:34:16.667Z,8.82
2023-01-11T20:35:49.121Z,8.73
2023-01-11T20:37:21.126Z,8.77
2023-01-11T20:38:54.335Z,8.35
2023-01-11T20:40:26.761Z,8.77
2023-01-11T20:41:58.782Z,9.45
2023-01-11T20:43:31.128Z,10.65
2023-01-11T20:45:03.391Z,10.30
2023-01-11T20:46:38.879Z,10.52
2023-01-11T20:48:11.133Z,10.30
2023-01-11T20:49:43.179Z,11.27
2023-01-11T20:51:15.243Z,9.93
2023-01-11T20:52:50.089Z,10.23
2023-01-11T20:54:22.191Z,11.20
2023-01-11T20:55:54.353Z,10.93
2023-01-11T20:57:29.644Z,10.35
2023-01-11T20:59:02.408Z,10.90
2023-01-11T21:00:34.937Z,10.90
2023-01-11T21:02:07.912Z,12.50
2023-01-11T21:03:39.975Z,11.18
2023-01-11T21:05:12.069Z,12.48
2023-01-11T21:06:46.730Z,12.77
2023-01-11T21:08:19.024Z,13.63
2023-01-11T21:09:51.152Z,16.83
2023-01-11T21:11:24.223Z,19.33
2023-01-11T21:16:12.124Z,10.05
2023-01-11T21:17:44.133Z,9.50
2023-01-11T21:19:17.388Z,10.43
2023-01-11T21:20:50.284Z,10.77
2023-01-11T21:22:22.369Z,10.25
2023-01-11T21:23:56.555Z,11.15
2023-01-11T21:25:28.737Z,9.73
2023-01-11T21:27:00.878Z,10.20
2023-01-11T21:28:33.005Z,9.32
2023-01-11T21:30:05.623Z,9.48
2023-01-11T21:31:38.292Z,8.77
2023-01-11T21:33:10.338Z,10.05
2023-01-11T21:34:42.519Z,8.80
2023-01-11T21:36:16.792Z,8.57
2023-01-11T21:37:48.768Z,8.02
2023-01-11T21:39:20.776Z,8.50
2023-01-11T21:40:52.972Z,7.95
2023-01-11T21:42:25.018Z,8.43
2023-01-11T21:43:57.065Z,7.20
2023-01-11T21:45:29.264Z,7.63
2023-01-11T21:47:03.424Z,8.50
2023-01-11T21:48:35.796Z,9.10
2023-01-11T22:57:57.345Z,10.63
2023-01-11T22:59:29.380Z,11.05
2023-01-11T23:01:13.524Z,10.43
2023-01-11T23:04:17.632Z,11.32
2023-01-11T23:05:49.774Z,11.98
2023-01-11T23:07:21.808Z,11.40
2023-01-11T23:08:54.633Z,12.18
2023-01-11T23:10:26.701Z,11.23
2023-01-11T23:12:36.976Z,10.73
2023-01-11T23:14:11.753Z,10.70
2023-01-11T23:15:43.825Z,10.52
2023-01-11T23:17:15.965Z,11.80